Time;durP1;ratioP1;P1;durP2;ratioP2;P2;SDS_P1;SDS_P2;PMS_P1;PMS_P2;Temp;Humidity;BMP_temperature;BMP_pressure;BME280_temperature;BME280_humidity;BME280_pressure;Samples;Min_cycle;Max_cycle;Signal;HPM_P1;HPM_P2
2021/03/26 00:01:50;;;;;;;42.03;22.02;;;77.50;2124.80;;;;;;5071213;28;20364;-57
2021/03/26 00:04:18;;;;;;;47.38;25.48;;;77.40;2176.00;;;;;;5070857;28;20028;-57
2021/03/26 00:06:47;;;;;;;30.67;18.05;;;77.20;2176.00;;;;;;5070740;28;20470;-57
2021/03/26 00:09:18;;;;;;;33.75;19.98;;;77.20;2176.00;;;;;;5070717;28;20020;-60
2021/03/26 00:11:46;;;;;;;29.60;18.10;;;77.10;2201.60;;;;;;5070455;28;20039;-57
2021/03/26 00:14:11;;;;;;;25.77;16.42;;;77.00;2227.20;;;;;;5070854;28;20060;-59
2021/03/26 00:16:37;;;;;;;25.63;16.05;;;76.90;2227.20;;;;;;5070240;28;20070;-58
2021/03/26 00:19:04;;;;;;;24.00;15.63;;;77.00;2227.20;;;;;;5070596;28;20029;-57
2021/03/26 00:21:31;;;;;;;27.63;16.42;;;76.90;2227.20;;;;;;5070746;28;20492;-56
2021/03/26 00:23:57;;;;;;;27.77;15.85;;;76.80;2227.20;;;;;;5070679;28;20024;-59
2021/03/26 00:26:23;;;;;;;28.52;16.35;;;76.80;2227.20;;;;;;5070260;28;20077;-60
2021/03/26 00:28:49;;;;;;;26.52;15.45;;;76.80;2227.20;;;;;;5070397;28;20108;-58
2021/03/26 00:31:15;;;;;;;23.05;14.40;;;52.10;2227.20;;;;;;5070135;28;20048;-57
2021/03/26 00:33:41;;;;;;;28.98;16.83;;;52.10;2227.20;;;;;;5070587;28;20029;-56
2021/03/26 00:36:06;;;;;;;24.80;14.05;;;52.10;2227.20;;;;;;5070192;28;20032;-56
2021/03/26 00:38:32;;;;;;;33.13;17.77;;;76.80;2227.20;;;;;;5070331;28;20093;-56
2021/03/26 00:40:58;;;;;;;24.65;14.95;;;76.80;2227.20;;;;;;5070313;28;20053;-58
2021/03/26 00:43:24;;;;;;;30.75;16.17;;;76.80;2227.20;;;;;;5070378;28;20078;-59
2021/03/26 00:45:50;;;;;;;25.27;15.07;;;52.10;2227.20;;;;;;5070581;28;20187;-57
2021/03/26 00:48:18;;;;;;;38.97;19.88;;;76.80;2227.20;;;;;;5070229;28;20111;-59
2021/03/26 00:50:47;;;;;;;27.45;14.10;;;76.90;2227.20;;;;;;5070178;28;20094;-56
2021/03/26 00:53:26;;;;;;;25.55;13.93;;;76.80;2201.60;;;;;;5070074;28;20021;-56
2021/03/26 00:55:53;;;;;;;25.33;13.80;;;52.10;2227.20;;;;;;5070203;28;20414;-59
2021/03/26 00:58:20;;;;;;;26.67;14.45;;;52.10;2227.20;;;;;;5070436;28;20024;-57
2021/03/26 01:00:46;;;;;;;28.92;15.82;;;52.00;2227.20;;;;;;5070069;28;20119;-56
2021/03/26 01:03:13;;;;;;;31.70;19.92;;;51.90;2227.20;;;;;;5069978;28;20029;-57
2021/03/26 01:05:42;;;;;;;29.10;16.73;;;51.90;2227.20;;;;;;5070040;28;20115;-57
2021/03/26 01:08:08;;;;;;;27.10;14.38;;;52.00;2227.20;;;;;;5069946;28;20024;-56
2021/03/26 01:10:40;;;;;;;27.73;14.65;;;52.00;2227.20;;;;;;5069491;28;20115;-57
2021/03/26 01:13:08;;;;;;;26.58;15.90;;;51.90;2227.20;;;;;;5070072;28;20047;-57
2021/03/26 01:15:35;;;;;;;26.98;15.18;;;51.80;2227.20;;;;;;5069917;28;20021;-57
2021/03/26 01:18:03;;;;;;;27.05;16.42;;;51.80;2227.20;;;;;;5070070;28;20099;-57
2021/03/26 01:20:34;;;;;;;24.48;14.85;;;51.80;2227.20;;;;;;5069944;28;20078;-57
2021/03/26 01:23:00;;;;;;;26.20;16.65;;;52.00;2227.20;;;;;;5069746;28;20106;-57
2021/03/26 01:25:35;;;;;;;26.52;16.35;;;52.00;2227.20;;;;;;5069946;28;20155;-57
2021/03/26 01:28:01;;;;;;;26.58;15.25;;;51.90;2227.20;;;;;;5071930;28;20059;-57
2021/03/26 01:30:28;;;;;;;29.40;14.20;;;51.80;2227.20;;;;;;5073962;28;20483;-58
2021/03/26 01:32:53;;;;;;;27.27;15.52;;;51.80;2227.20;;;;;;5073788;28;20482;-58
2021/03/26 01:35:21;;;;;;;26.25;15.43;;;51.80;2227.20;;;;;;5074082;28;20031;-56
2021/03/26 01:37:48;;;;;;;26.27;15.70;;;51.70;2227.20;;;;;;5073732;28;20104;-56
2021/03/26 01:40:18;;;;;;;26.02;13.52;;;51.60;2227.20;;;;;;5073607;28;20024;-56
2021/03/26 01:42:44;;;;;;;23.75;13.68;;;51.60;2227.20;;;;;;5073582;28;20028;-59
2021/03/26 01:45:23;;;;;;;23.60;14.65;;;51.60;2227.20;;;;;;5073868;28;20097;-59
2021/03/26 01:47:51;;;;;;;24.77;14.43;;;51.60;2227.20;;;;;;5073705;28;20025;-57
2021/03/26 01:50:20;;;;;;;24.50;15.85;;;51.60;2227.20;;;;;;5073369;28;20024;-57
2021/03/26 01:52:45;;;;;;;28.30;14.95;;;51.70;2227.20;;;;;;5073629;28;20424;-59
2021/03/26 01:55:28;;;;;;;20.52;12.52;;;51.70;2227.20;;;;;;5073439;28;20074;-56
2021/03/26 01:57:54;;;;;;;24.10;13.90;;;51.70;2227.20;;;;;;5073195;28;20098;-57
2021/03/26 02:00:34;;;;;;;27.52;15.85;;;51.60;2227.20;;;;;;5073365;28;20049;-57
2021/03/26 02:03:13;;;;;;;42.88;24.50;;;51.80;2201.60;;;;;;5073136;28;20108;-56
2021/03/26 02:05:39;;;;;;;61.70;36.50;;;51.90;2201.60;;;;;;5073198;28;20032;-56
2021/03/26 02:08:04;;;;;;;36.13;22.20;;;52.00;2176.00;;;;;;5073066;28;20089;-56
2021/03/26 02:10:31;;;;;;;36.35;21.40;;;52.10;2150.40;;;;;;5072997;28;20024;-57
2021/03/26 02:13:04;;;;;;;32.08;17.90;;;76.80;2124.80;;;;;;5073154;28;20063;-57
2021/03/26 02:15:46;;;;;;;28.77;16.98;;;76.90;2124.80;;;;;;5073140;28;20024;-57
2021/03/26 02:18:29;;;;;;;33.22;18.52;;;76.90;2124.80;;;;;;5072883;28;20037;-56
2021/03/26 02:21:00;;;;;;;33.95;18.60;;;76.90;2099.20;;;;;;5072921;28;20028;-57
2021/03/26 02:23:28;;;;;;;32.30;18.73;;;76.90;2099.20;;;;;;5072513;28;20028;-57
2021/03/26 02:25:56;;;;;;;61.22;33.00;;;77.00;2099.20;;;;;;5072742;28;20048;-59
2021/03/26 02:28:23;;;;;;;30.88;18.27;;;77.00;2073.60;;;;;;5072694;28;20037;-57
2021/03/26 02:30:57;;;;;;;34.83;19.75;;;77.00;2099.20;;;;;;5072903;28;20031;-60
2021/03/26 02:33:24;;;;;;;41.25;23.15;;;77.00;2099.20;;;;;;5072893;28;20081;-60
2021/03/26 02:36:12;;;;;;;37.60;20.77;;;77.00;2099.20;;;;;;5072850;28;20308;-60
2021/03/26 02:38:40;;;;;;;36.95;23.50;;;77.00;2099.20;;;;;;5049739;28;20033;-60
2021/03/26 02:41:06;;;;;;;42.75;24.25;;;76.90;2124.80;;;;;;5050193;28;20143;-60
2021/03/26 02:43:43;;;;;;;48.00;24.30;;;76.90;2124.80;;;;;;5050414;28;20578;-60
2021/03/26 02:46:20;;;;;;;44.17;22.33;;;76.90;2124.80;;;;;;5050440;28;20029;-60
2021/03/26 02:48:59;;;;;;;42.67;21.55;;;76.90;2124.80;;;;;;5049929;28;20040;-56
2021/03/26 02:51:30;;;;;;;32.78;18.75;;;76.90;2124.80;;;;;;5049913;28;20041;-56
2021/03/26 02:54:03;;;;;;;27.25;17.13;;;76.80;2124.80;;;;;;5049818;28;20021;-58
2021/03/26 02:56:36;;;;;;;28.60;16.77;;;76.80;2099.20;;;;;;5050227;28;20090;-56
2021/03/26 02:59:08;;;;;;;26.40;14.90;;;76.80;2124.80;;;;;;5049896;28;20056;-57
2021/03/26 03:01:38;;;;;;;29.80;18.88;;;76.80;2124.80;;;;;;5049781;28;20530;-57
2021/03/26 03:04:20;;;;;;;27.02;16.92;;;76.80;2099.20;;;;;;5049870;28;20029;-63
2021/03/26 03:06:52;;;;;;;24.02;14.45;;;76.80;2099.20;;;;;;5049933;28;20029;-61
2021/03/26 03:09:20;;;;;;;22.75;13.50;;;76.80;2099.20;;;;;;5049793;28;20033;-62
2021/03/26 03:11:53;;;;;;;20.85;11.80;;;76.90;2073.60;;;;;;5049628;28;20040;-62
2021/03/26 03:14:30;;;;;;;24.45;12.35;;;76.80;2073.60;;;;;;5049821;28;20021;-63
2021/03/26 03:17:33;;;;;;;17.38;10.70;;;52.10;2099.20;;;;;;5071729;28;20370;-62
2021/03/26 03:20:12;;;;;;;20.83;11.35;;;76.80;2073.60;;;;;;5049703;28;20122;-60
2021/03/26 03:22:45;;;;;;;23.88;13.25;;;52.10;2073.60;;;;;;5049655;28;20032;-58
2021/03/26 03:25:17;;;;;;;21.92;13.57;;;52.10;2124.80;;;;;;5049575;28;20057;-60
2021/03/26 03:28:08;;;;;;;26.65;14.20;;;52.00;2124.80;;;;;;5049458;28;20029;-59
2021/03/26 03:31:01;;;;;;;130.18;47.72;;;52.10;2124.80;;;;;;5049117;28;20541;-60
2021/03/26 03:33:33;;;;;;;36.90;16.63;;;52.10;2124.80;;;;;;5049437;28;20037;-58
2021/03/26 03:36:04;;;;;;;34.25;18.58;;;52.00;2150.40;;;;;;5049549;28;20033;-59
2021/03/26 03:39:00;;;;;;;26.50;14.85;;;52.00;2150.40;;;;;;5049470;28;20045;-58
2021/03/26 03:41:46;;;;;;;27.40;14.40;;;51.90;2150.40;;;;;;5049207;28;20045;-59
2021/03/26 03:44:37;;;;;;;33.03;14.25;;;51.90;2150.40;;;;;;5049031;28;20036;-59
2021/03/26 03:47:11;;;;;;;26.73;15.95;;;51.80;2150.40;;;;;;5049092;28;20045;-58
2021/03/26 03:49:56;;;;;;;24.73;14.60;;;51.80;2150.40;;;;;;5048097;28;20032;-59
2021/03/26 03:52:42;;;;;;;24.33;14.02;;;51.70;2176.00;;;;;;5049261;28;20050;-61
2021/03/26 03:55:23;;;;;;;25.40;14.38;;;51.70;2176.00;;;;;;5049660;28;20175;-60
2021/03/26 03:58:03;;;;;;;25.90;15.75;;;51.70;2176.00;;;;;;5071112;28;20052;-59
2021/03/26 04:00:37;;;;;;;21.27;12.10;;;51.60;2201.60;;;;;;5071063;28;20017;-59
2021/03/26 04:03:07;;;;;;;20.13;12.45;;;51.60;2201.60;;;;;;5070664;28;20033;-59
2021/03/26 04:06:08;;;;;;;29.38;18.27;;;51.60;2201.60;;;;;;5070281;28;20079;-59
2021/03/26 04:08:41;;;;;;;21.02;13.43;;;51.60;2201.60;;;;;;5048248;28;20106;-58
2021/03/26 04:11:21;;;;;;;18.40;10.68;;;51.50;2201.60;;;;;;5048294;28;20044;-59
2021/03/26 04:14:28;;;;;;;25.58;14.63;;;51.50;2201.60;;;;;;5048596;28;20025;-58
2021/03/26 04:17:13;;;;;;;25.70;17.10;;;51.50;2227.20;;;;;;4989222;28;20030;-59
2021/03/26 04:19:45;;;;;;;28.08;16.38;;;51.50;2227.20;;;;;;4989091;28;20026;-58
2021/03/26 04:22:22;;;;;;;29.65;16.33;;;51.50;2201.60;;;;;;4989181;28;20044;-58
2021/03/26 04:24:58;;;;;;;33.25;17.33;;;51.50;2227.20;;;;;;4988897;28;20039;-57
2021/03/26 04:27:46;;;;;;;32.80;17.63;;;51.50;2227.20;;;;;;4988994;28;20468;-58
2021/03/26 04:30:22;;;;;;;28.25;16.50;;;51.60;2201.60;;;;;;4988846;28;20117;-59
2021/03/26 04:32:49;;;;;;;22.83;15.10;;;51.50;2201.60;;;;;;4989084;28;20034;-58
2021/03/26 04:35:17;;;;;;;26.30;12.95;;;51.50;2201.60;;;;;;4988957;28;20087;-59
2021/03/26 04:38:08;;;;;;;39.75;23.58;;;51.50;2201.60;;;;;;4988915;28;20130;-59
2021/03/26 04:40:44;;;;;;;35.88;23.02;;;51.50;2201.60;;;;;;4988543;28;20483;-60
2021/03/26 04:43:20;;;;;;;30.40;19.52;;;51.60;2201.60;;;;;;4992205;28;20244;-59
2021/03/26 04:46:16;;;;;;;34.53;20.30;;;51.70;2176.00;;;;;;5028081;28;20473;-60
2021/03/26 04:48:48;;;;;;;41.00;21.33;;;51.80;2176.00;;;;;;5028209;28;20021;-57
2021/03/26 04:51:39;;;;;;;37.15;22.27;;;51.80;2176.00;;;;;;5027911;28;20137;-59
2021/03/26 04:54:27;;;;;;;34.20;20.63;;;51.80;2150.40;;;;;;5065890;28;20556;-59
2021/03/26 04:57:22;;;;;;;43.15;22.65;;;51.90;2150.40;;;;;;5070171;28;20036;-59
2021/03/26 05:00:03;;;;;;;43.45;22.80;;;52.00;2150.40;;;;;;5047948;28;20025;-62
2021/03/26 05:02:31;;;;;;;41.75;22.42;;;52.00;2150.40;;;;;;5047491;28;20033;-58
2021/03/26 05:04:58;;;;;;;35.72;19.65;;;52.10;2227.20;;;;;;5047671;28;20041;-59
2021/03/26 05:07:57;;;;;;;26.50;16.58;;;52.10;2150.40;;;;;;5047905;28;20032;-59
2021/03/26 05:10:26;;;;;;;27.80;16.08;;;76.90;2099.20;;;;;;4988309;28;20046;-60
2021/03/26 05:12:57;;;;;;;25.98;15.32;;;77.10;2073.60;;;;;;4988588;28;20121;-59
2021/03/26 05:15:28;;;;;;;27.58;15.98;;;77.30;2048.00;;;;;;4988456;28;20026;-58
2021/03/26 05:17:59;;;;;;;26.92;16.10;;;77.40;2022.40;;;;;;4988506;28;20035;-58
2021/03/26 05:20:29;;;;;;;25.45;15.65;;;77.50;1996.80;;;;;;4988226;28;20034;-60
2021/03/26 05:23:35;;;;;;;24.08;15.75;;;77.50;1971.20;;;;;;4988325;28;20419;-57
2021/03/26 05:26:01;;;;;;;21.13;13.57;;;77.60;1996.80;;;;;;4911683;29;20071;-56
2021/03/26 05:28:33;;;;;;;20.42;13.57;;;77.70;1971.20;;;;;;4911705;29;20032;-56
2021/03/26 05:31:17;;;;;;;18.83;12.75;;;77.70;1971.20;;;;;;4911436;29;20047;-58
2021/03/26 05:33:48;;;;;;;20.13;12.35;;;102.50;1945.60;;;;;;4911530;29;20100;-57
2021/03/26 05:36:22;;;;;;;21.60;13.73;;;102.60;1945.60;;;;;;4921734;29;20039;-56
2021/03/26 05:39:12;;;;;;;27.20;14.25;;;102.70;1920.00;;;;;;4949898;29;20538;-57
2021/03/26 05:42:02;;;;;;;22.10;14.98;;;102.80;1894.40;;;;;;4949522;29;20129;-56
2021/03/26 05:44:55;;;;;;;29.00;14.05;;;102.90;1894.40;;;;;;4949607;29;20039;-56
2021/03/26 05:47:36;;;;;;;23.55;14.48;;;128.60;1817.60;;;;;;4979321;28;20035;-57
2021/03/26 05:50:24;;;;;;;22.95;15.35;;;154.20;1689.60;;;;;;4988240;28;20113;-57
2021/03/26 05:53:02;;;;;;;35.92;21.77;;;179.50;1612.80;;;;;;4988251;28;20185;-59
2021/03/26 05:55:28;;;;;;;33.05;19.85;;;205.20;1510.40;;;;;;4988150;28;20058;-56
2021/03/26 05:58:27;;;;;;;27.77;20.38;;;230.90;1382.40;;;;;;5065580;28;20036;-57
2021/03/26 06:01:37;;;;;;;26.30;18.27;;;256.50;1280.00;;;;;;5069200;28;20074;-57
2021/03/26 06:04:44;;;;;;;26.00;18.15;;;282.50;1203.20;;;;;;5067981;28;20137;-58
2021/03/26 06:07:30;;;;;;;21.73;17.23;;;308.10;1126.40;;;;;;5047172;28;20044;-57
2021/03/26 06:10:04;;;;;;;23.20;17.95;;;333.70;1075.20;;;;;;5046899;28;20061;-58
2021/03/26 06:12:39;;;;;;;23.80;19.42;;;384.00;972.80;;;;;;5047049;28;20569;-57
2021/03/26 06:15:26;;;;;;;59.95;42.20;;;384.70;947.20;;;;;;5050193;28;20024;-57
2021/03/26 06:18:07;;;;;;;51.42;43.25;;;384.90;921.60;;;;;;5050567;28;20033;-57
2021/03/26 06:21:07;;;;;;;49.83;41.33;;;435.50;844.80;;;;;;5050409;28;20032;-58
2021/03/26 06:24:10;;;;;;;50.72;39.13;;;461.70;793.60;;;;;;4991036;28;20059;-58
2021/03/26 06:26:47;;;;;;;81.75;58.00;;;487.00;742.40;;;;;;5050200;28;20051;-58
2021/03/26 06:29:25;;;;;;;92.30;65.18;;;537.90;716.80;;;;;;5050242;28;20116;-58
2021/03/26 06:32:27;;;;;;;108.97;93.65;;;538.20;665.60;;;;;;5050268;28;20052;-59
2021/03/26 06:35:23;;;;;;;149.27;133.27;;;563.20;665.60;;;;;;5050182;28;20037;-59
2021/03/26 06:38:25;;;;;;;82.43;73.35;;;538.30;665.60;;;;;;5050420;28;20044;-58
2021/03/26 06:41:16;;;;;;;35.38;31.98;;;563.20;691.20;;;;;;5050268;28;20103;-58
2021/03/26 06:44:04;;;;;;;46.63;41.88;;;563.90;665.60;;;;;;5066320;28;20036;-56
2021/03/26 06:46:44;;;;;;;48.60;43.70;;;564.00;640.00;;;;;;5069705;28;20024;-59
2021/03/26 06:49:13;;;;;;;52.00;46.17;;;589.20;640.00;;;;;;5072156;28;20086;-58
2021/03/26 06:51:44;;;;;;;47.58;43.28;;;614.40;614.40;;;;;;5071681;28;20037;-57
2021/03/26 06:54:09;;;;;;;31.77;28.90;;;615.30;588.80;;;;;;5071927;28;20032;-58
2021/03/26 06:56:57;;;;;;;36.55;33.25;;;640.10;563.20;;;;;;5071732;28;20029;-58
2021/03/26 06:59:41;;;;;;;32.40;29.35;;;640.20;537.60;;;;;;5071560;28;20025;-59
2021/03/26 07:02:12;;;;;;;36.13;32.75;;;665.80;563.20;;;;;;5071803;28;20028;-58
2021/03/26 07:04:41;;;;;;;33.53;30.17;;;691.30;512.00;;;;;;5072024;28;20029;-58
2021/03/26 07:07:37;;;;;;;29.33;26.33;;;691.50;486.40;;;;;;5071754;28;20048;-59
2021/03/26 07:10:40;;;;;;;62.78;53.38;;;691.40;486.40;;;;;;5071804;28;20021;-59
2021/03/26 07:13:30;;;;;;;35.72;31.92;;;665.90;537.60;;;;;;5071652;28;20024;-58
2021/03/26 07:16:20;;;;;;;42.30;38.05;;;666.50;512.00;;;;;;5071539;28;20489;-58
2021/03/26 07:18:45;;;;;;;42.65;38.00;;;666.50;512.00;;;;;;5071666;28;20044;-58
2021/03/26 07:21:36;;;;;;;42.65;38.20;;;691.30;512.00;;;;;;5071564;28;20021;-61
2021/03/26 07:24:16;;;;;;;60.40;54.28;;;691.70;512.00;;;;;;5071302;28;20028;-62
2021/03/26 07:27:12;;;;;;;77.43;64.45;;;691.70;486.40;;;;;;5071505;28;20016;-60
2021/03/26 07:29:58;;;;;;;86.18;75.97;;;716.80;512.00;;;;;;5071328;28;20418;-59
2021/03/26 07:32:39;;;;;;;99.88;89.32;;;716.90;486.40;;;;;;5076529;28;20091;-58
2021/03/26 07:35:49;;;;;;;116.05;103.97;;;691.40;486.40;;;;;;5079552;28;20027;-58
2021/03/26 07:38:23;;;;;;;94.53;85.00;;;691.20;512.00;;;;;;5058118;28;20037;-61
2021/03/26 07:40:57;;;;;;;93.95;84.18;;;666.40;512.00;;;;;;5057442;28;20040;-59
2021/03/26 07:43:59;;;;;;;99.25;88.63;;;666.00;512.00;;;;;;5068757;28;20044;-61
2021/03/26 07:47:01;;;;;;;125.35;112.25;;;691.40;486.40;;;;;;5067721;28;20021;-59
2021/03/26 07:49:33;;;;;;;140.77;126.45;;;691.70;486.40;;;;;;5043991;28;20053;-60
2021/03/26 07:52:10;;;;;;;144.30;129.63;;;666.50;512.00;;;;;;5040228;28;20553;-60
2021/03/26 07:55:02;;;;;;;118.15;106.15;;;691.60;486.40;;;;;;5039386;28;20126;-59
2021/03/26 07:57:45;;;;;;;85.78;76.70;;;716.90;460.80;;;;;;5046012;28;20036;-58
2021/03/26 08:00:17;;;;;;;80.97;72.43;;;742.60;435.20;;;;;;5057481;28;20627;-58
2021/03/26 08:03:16;;;;;;;87.03;78.47;;;742.40;460.80;;;;;;5039992;28;20065;-60
2021/03/26 08:06:06;;;;;;;74.90;67.22;;;743.00;435.20;;;;;;5037954;28;20098;-59
2021/03/26 08:08:37;;;;;;;68.78;61.17;;;742.90;460.80;;;;;;5043735;28;20064;-58
2021/03/26 08:11:46;;;;;;;57.92;48.92;;;742.60;460.80;;;;;;5048343;28;20037;-57
2021/03/26 08:14:17;;;;;;;54.72;48.75;;;717.50;435.20;;;;;;5044226;28;20040;-62
2021/03/26 08:16:57;;;;;;;37.60;33.50;;;743.30;409.60;;;;;;5049263;28;20025;-60
2021/03/26 08:19:55;;;;;;;31.27;28.15;;;717.70;384.00;;;;;;5050256;28;20079;-62
2021/03/26 08:22:31;;;;;;;25.75;23.27;;;743.00;358.40;;;;;;5028106;28;20033;-62
2021/03/26 08:25:30;;;;;;;25.08;22.63;;;743.20;358.40;;;;;;5028128;28;20021;-61
2021/03/26 08:28:13;;;;;;;49.17;43.92;;;717.70;358.40;;;;;;5027880;28;20037;-61
2021/03/26 08:31:02;;;;;;;64.45;56.15;;;742.40;409.60;;;;;;5027970;28;20076;-60
2021/03/26 08:34:02;;;;;;;63.45;56.67;;;742.70;384.00;;;;;;5028045;28;20041;-64
2021/03/26 08:36:33;;;;;;;38.35;29.83;;;742.60;409.60;;;;;;5027632;28;20049;-59
2021/03/26 08:39:34;;;;;;;42.78;38.25;;;692.00;409.60;;;;;;5028170;28;20044;-62
2021/03/26 08:42:24;;;;;;;34.58;31.20;;;717.50;409.60;;;;;;5027797;28;20049;-63
2021/03/26 08:44:56;;;;;;;25.92;23.30;;;716.80;435.20;;;;;;5028146;28;20064;-61
2021/03/26 08:47:37;;;;;;;134.50;96.75;;;691.70;384.00;;;;;;5028093;28;20028;-60
2021/03/26 08:50:23;;;;;;;24.52;22.13;;;691.50;409.60;;;;;;5027806;28;20369;-65
2021/03/26 08:53:10;;;;;;;43.08;33.60;;;666.30;409.60;;;;;;5027219;28;20053;-59
2021/03/26 08:56:08;;;;;;;134.30;105.97;;;691.80;409.60;;;;;;5027422;28;20040;-58
2021/03/26 08:58:48;;;;;;;379.30;280.85;;;691.80;358.40;;;;;;5034206;28;20037;-59
2021/03/26 09:01:39;;;;;;;28.25;25.08;;;691.90;384.00;;;;;;5049320;28;20032;-60
2021/03/26 09:04:23;;;;;;;22.25;19.95;;;666.10;435.20;;;;;;5049799;28;20033;-58
2021/03/26 09:07:15;;;;;;;70.53;56.25;;;614.60;512.00;;;;;;5049989;28;20024;-58
2021/03/26 09:10:14;;;;;;;75.82;59.75;;;589.10;512.00;;;;;;5049606;28;20025;-58
2021/03/26 09:13:04;;;;;;;54.33;40.95;;;563.90;563.20;;;;;;5049780;28;20033;-57
2021/03/26 09:16:07;;;;;;;44.22;26.85;;;537.70;640.00;;;;;;5049076;28;20023;-59
2021/03/26 09:18:51;;;;;;;43.67;34.55;;;512.30;665.60;;;;;;5049430;28;20430;-62
2021/03/26 09:21:20;;;;;;;29.30;22.52;;;487.20;691.20;;;;;;5049418;28;20071;-63
2021/03/26 09:24:26;;;;;;;33.28;23.27;;;487.10;691.20;;;;;;5048689;28;20083;-57
2021/03/26 09:27:08;;;;;;;30.35;21.65;;;486.90;691.20;;;;;;5049778;28;20028;-59
2021/03/26 09:29:33;;;;;;;27.92;21.60;;;461.50;742.40;;;;;;5049330;28;20045;-59
2021/03/26 09:32:11;;;;;;;30.05;22.35;;;435.50;742.40;;;;;;5048989;28;20076;-65
2021/03/26 09:34:44;;;;;;;37.78;26.02;;;460.80;742.40;;;;;;5049446;28;20032;-59
2021/03/26 09:37:15;;;;;;;52.00;39.88;;;460.80;742.40;;;;;;5049536;28;20067;-60
2021/03/26 09:39:45;;;;;;;31.13;21.50;;;460.80;742.40;;;;;;5049380;28;20458;-57
2021/03/26 09:42:29;;;;;;;58.15;35.85;;;435.40;742.40;;;;;;5049344;28;20060;-58
2021/03/26 09:45:29;;;;;;;31.60;21.42;;;435.90;742.40;;;;;;5048794;28;20021;-63
2021/03/26 09:48:25;;;;;;;47.90;34.05;;;435.80;793.60;;;;;;5027408;28;20117;-58
2021/03/26 09:51:07;;;;;;;38.15;28.35;;;435.90;742.40;;;;;;5031194;28;20042;-58
2021/03/26 09:53:40;;;;;;;32.20;24.63;;;435.70;716.80;;;;;;5030103;28;20030;-58
2021/03/26 09:56:38;;;;;;;42.70;30.23;;;435.50;768.00;;;;;;5030785;28;20063;-57
2021/03/26 09:59:04;;;;;;;20.80;16.40;;;410.40;793.60;;;;;;5023924;28;20029;-57
2021/03/26 10:02:06;;;;;;;82.72;53.00;;;410.20;793.60;;;;;;5030470;28;20056;-56
2021/03/26 10:04:37;;;;;;;25.23;18.60;;;435.20;768.00;;;;;;5030844;28;20510;-57
2021/03/26 10:07:35;;;;;;;30.50;22.75;;;410.00;844.80;;;;;;5030150;28;20048;-58
2021/03/26 10:12:52;;;;;;;31.35;21.10;;;409.90;819.20;;;;;;5030934;28;20048;-57
2021/03/26 10:15:29;;;;;;;37.58;27.55;;;410.30;793.60;;;;;;5030299;28;20053;-57
2021/03/26 10:18:21;;;;;;;32.85;25.55;;;410.30;819.20;;;;;;5030213;28;20044;-57
2021/03/26 10:20:59;;;;;;;39.30;26.63;;;410.10;793.60;;;;;;5030330;28;20492;-57
2021/03/26 10:23:51;;;;;;;43.90;33.05;;;409.60;844.80;;;;;;5032970;28;20037;-59
2021/03/26 10:26:48;;;;;;;42.85;32.33;;;409.80;819.20;;;;;;5049310;28;20060;-59
2021/03/26 10:29:28;;;;;;;36.22;23.83;;;410.00;870.40;;;;;;5052009;28;20021;-57
2021/03/26 10:31:54;;;;;;;32.53;23.30;;;409.70;819.20;;;;;;5052294;28;20128;-56
2021/03/26 10:34:37;;;;;;;65.90;49.72;;;384.90;819.20;;;;;;5052681;28;20052;-59
2021/03/26 10:37:35;;;;;;;35.70;26.00;;;409.90;819.20;;;;;;5050848;28;20166;-57
2021/03/26 10:40:25;;;;;;;39.95;34.08;;;409.60;844.80;;;;;;5052338;28;20277;-57
2021/03/26 10:43:30;;;;;;;68.57;36.38;;;410.00;844.80;;;;;;5050279;28;20041;-56
2021/03/26 10:46:10;;;;;;;26.95;20.08;;;410.30;870.40;;;;;;5028085;28;20029;-56
2021/03/26 10:48:43;;;;;;;37.00;24.40;;;410.40;870.40;;;;;;5028634;28;20021;-57
2021/03/26 10:51:29;;;;;;;29.33;20.42;;;409.90;844.80;;;;;;5030005;28;20053;-57
2021/03/26 10:54:07;;;;;;;52.58;33.08;;;410.30;819.20;;;;;;5029417;28;20083;-59
2021/03/26 10:57:02;;;;;;;48.20;30.27;;;410.00;819.20;;;;;;5028557;28;20030;-58
2021/03/26 10:59:51;;;;;;;40.78;30.83;;;410.10;819.20;;;;;;4950850;28;20502;-57
2021/03/26 11:02:47;;;;;;;26.25;20.30;;;409.80;844.80;;;;;;4951505;29;20512;-58
2021/03/26 11:05:19;;;;;;;38.13;21.50;;;384.60;870.40;;;;;;4951283;29;20054;-57
2021/03/26 11:07:58;;;;;;;31.80;22.00;;;384.80;819.20;;;;;;4964803;28;20026;-59
2021/03/26 11:10:32;;;;;;;81.72;51.85;;;409.70;844.80;;;;;;4969482;28;20827;-60
2021/03/26 11:13:22;;;;;;;79.40;54.20;;;410.10;896.00;;;;;;4970013;28;20125;-59
2021/03/26 11:16:01;;;;;;;35.85;25.52;;;409.90;870.40;;;;;;4964835;28;20472;-59
2021/03/26 11:18:33;;;;;;;29.60;19.42;;;410.10;947.20;;;;;;4968206;28;20163;-59
2021/03/26 11:21:04;;;;;;;37.87;24.37;;;410.30;947.20;;;;;;4966921;28;20143;-59
2021/03/26 11:23:37;;;;;;;31.42;20.48;;;410.50;870.40;;;;;;5010040;28;20042;-62
2021/03/26 11:26:06;;;;;;;29.13;21.08;;;410.50;921.60;;;;;;5008754;28;20026;-60
2021/03/26 11:28:34;;;;;;;26.45;16.58;;;410.30;844.80;;;;;;5008664;28;20029;-59
2021/03/26 11:31:27;;;;;;;19.65;14.48;;;410.20;896.00;;;;;;5014317;28;20038;-59
2021/03/26 11:34:29;;;;;;;25.42;16.50;;;410.40;896.00;;;;;;5013265;28;20036;-58
2021/03/26 11:37:17;;;;;;;24.50;16.85;;;410.10;972.80;;;;;;5037118;28;20045;-58
2021/03/26 11:39:56;;;;;;;21.13;15.60;;;410.30;896.00;;;;;;5060602;28;20071;-59
2021/03/26 11:42:29;;;;;;;32.90;23.02;;;410.50;896.00;;;;;;5062115;28;20036;-57
2021/03/26 11:45:17;;;;;;;31.65;22.05;;;410.50;844.80;;;;;;5059094;28;20054;-57
2021/03/26 11:47:45;;;;;;;26.20;17.20;;;410.40;896.00;;;;;;5056353;28;20035;-58
2021/03/26 11:50:32;;;;;;;27.90;17.88;;;409.90;896.00;;;;;;5059401;28;20036;-58
2021/03/26 11:53:16;;;;;;;30.45;21.08;;;409.80;870.40;;;;;;5058552;28;20511;-63
2021/03/26 11:56:03;;;;;;;24.30;17.52;;;409.80;896.00;;;;;;5050835;28;20395;-59
2021/03/26 11:58:51;;;;;;;22.48;16.23;;;384.90;870.40;;;;;;5059298;28;20037;-66
2021/03/26 12:01:20;;;;;;;30.85;23.80;;;409.70;870.40;;;;;;5059645;28;20159;-58
2021/03/26 12:04:20;;;;;;;26.80;17.55;;;409.90;896.00;;;;;;5057142;28;20033;-58
2021/03/26 12:07:04;;;;;;;27.48;20.35;;;410.00;947.20;;;;;;5050208;28;20036;-57
2021/03/26 12:09:53;;;;;;;34.55;23.70;;;410.00;896.00;;;;;;5048280;28;20027;-57
2021/03/26 12:12:30;;;;;;;26.40;20.75;;;409.90;921.60;;;;;;5007850;28;20108;-58
2021/03/26 12:15:07;;;;;;;33.80;21.05;;;410.30;896.00;;;;;;5008008;28;20033;-59
2021/03/26 12:17:43;;;;;;;31.10;23.38;;;410.30;896.00;;;;;;5008335;28;20038;-59
2021/03/26 12:20:33;;;;;;;23.58;16.83;;;410.40;921.60;;;;;;5008285;28;20116;-59
2021/03/26 12:23:09;;;;;;;27.70;20.08;;;410.40;870.40;;;;;;5008812;28;20033;-58
2021/03/26 12:25:47;;;;;;;26.95;21.08;;;409.80;896.00;;;;;;5022584;28;20052;-59
2021/03/26 12:28:38;;;;;;;19.88;14.23;;;409.90;896.00;;;;;;5065349;28;20534;-62
2021/03/26 12:31:24;;;;;;;22.83;15.60;;;410.40;947.20;;;;;;5067560;28;20506;-63
2021/03/26 12:34:02;;;;;;;40.17;23.83;;;409.60;896.00;;;;;;5067277;28;20087;-57
2021/03/26 12:36:35;;;;;;;26.05;18.13;;;384.80;896.00;;;;;;5068195;28;20190;-58
2021/03/26 12:39:35;;;;;;;29.38;21.77;;;409.70;896.00;;;;;;5067701;28;20450;-59
2021/03/26 12:42:24;;;;;;;40.25;25.70;;;409.60;921.60;;;;;;5047809;28;20106;-65
2021/03/26 12:45:16;;;;;;;34.15;23.25;;;410.10;921.60;;;;;;5048027;28;20111;-58
2021/03/26 12:48:03;;;;;;;33.35;21.50;;;410.10;921.60;;;;;;5047731;28;20032;-60
2021/03/26 12:51:07;;;;;;;24.20;17.30;;;409.70;896.00;;;;;;5067670;28;20032;-57
2021/03/26 12:53:56;;;;;;;28.60;18.90;;;409.70;896.00;;;;;;5027792;28;20042;-58
2021/03/26 12:56:53;;;;;;;34.28;20.17;;;409.80;896.00;;;;;;5028066;28;20029;-58
2021/03/26 12:59:19;;;;;;;30.45;20.00;;;409.80;921.60;;;;;;5027755;28;20196;-57
2021/03/26 13:02:03;;;;;;;35.40;24.45;;;410.10;947.20;;;;;;5027542;28;20032;-60
2021/03/26 13:05:01;;;;;;;;;;;410.20;921.60;;;;;;5028349;28;20049;-58
2021/03/26 13:07:47;;;;;;;48.17;31.30;;;409.90;896.00;;;;;;4968833;28;20349;-56
2021/03/26 13:10:34;;;;;;;52.17;38.13;;;410.20;947.20;;;;;;4968809;28;20050;-68
2021/03/26 13:13:19;;;;;;;33.15;22.60;;;410.20;896.00;;;;;;4969058;28;20035;-59
2021/03/26 13:16:24;;;;;;;27.95;20.23;;;410.00;921.60;;;;;;4968874;28;20125;-58